Time;durP1;ratioP1;P1;durP2;ratioP2;P2;SDS_P1;SDS_P2;PMS_P1;PMS_P2;Temp;Humidity;BMP_temperature;BMP_pressure;BME280_temperature;BME280_humidity;BME280_pressure;Samples;Min_cycle;Max_cycle;Signal;HPM_P1;HPM_P2
2023/09/27 00:01:39;;;;;;;0.03;0.03;;;15.50;50.50;;;;;;5111663;28;20308;-60
2023/09/27 00:04:10;;;;;;;0.10;0.10;;;15.50;50.50;;;;;;5111523;28;20232;-61
2023/09/27 00:06:41;;;;;;;0.10;0.10;;;15.50;50.50;;;;;;5111638;28;20197;-61
2023/09/27 00:09:15;;;;;;;0.10;0.10;;;15.50;50.50;;;;;;5111604;28;20243;-61
2023/09/27 00:11:46;;;;;;;0.10;0.10;;;15.50;50.50;;;;;;5111419;28;20235;-61
2023/09/27 00:14:17;;;;;;;0.10;0.10;;;15.50;50.50;;;;;;5108684;28;20247;-62
2023/09/27 00:16:47;;;;;;;0.10;0.10;;;15.50;50.50;;;;;;5112468;28;20205;-62
2023/09/27 00:19:18;;;;;;;0.10;0.10;;;15.50;50.50;;;;;;5111727;28;20198;-61
2023/09/27 00:21:49;;;;;;;0.10;0.10;;;15.50;50.40;;;;;;5111011;28;20236;-61
2023/09/27 00:24:21;;;;;;;0.00;0.00;;;15.50;50.50;;;;;;5111568;28;20216;-62
2023/09/27 00:26:52;;;;;;;0.10;0.10;;;15.50;50.50;;;;;;5111606;28;20284;-61
2023/09/27 00:29:22;;;;;;;0.00;0.00;;;15.50;50.50;;;;;;5111247;28;20250;-61
2023/09/27 00:31:54;;;;;;;0.10;0.10;;;15.50;50.50;;;;;;5113631;22;20223;-47
2023/09/27 00:34:24;;;;;;;0.10;0.10;;;15.50;50.50;;;;;;5071053;28;20194;-47
2023/09/27 00:36:55;;;;;;;0.10;0.10;;;15.50;50.50;;;;;;5070771;28;20224;-47
2023/09/27 00:39:27;;;;;;;0.10;0.10;;;15.50;50.50;;;;;;5070867;28;20190;-47
2023/09/27 00:41:59;;;;;;;0.10;0.10;;;15.50;50.50;;;;;;5070434;28;20223;-47
2023/09/27 00:44:29;;;;;;;0.10;0.10;;;15.50;50.40;;;;;;5069926;28;20720;-47
2023/09/27 00:47:00;;;;;;;0.00;0.00;;;15.50;50.40;;;;;;5070069;28;20206;-46
2023/09/27 00:49:31;;;;;;;0.03;0.03;;;15.50;50.40;;;;;;5074470;28;20225;-46
2023/09/27 00:52:02;;;;;;;0.03;0.03;;;15.60;50.40;;;;;;5074397;28;20218;-48
2023/09/27 00:54:36;;;;;;;0.10;0.10;;;15.60;50.40;;;;;;5074516;28;20194;-47
2023/09/27 00:57:07;;;;;;;0.10;0.10;;;15.60;50.40;;;;;;5074281;28;20357;-48
2023/09/27 00:59:38;;;;;;;0.10;0.10;;;15.60;50.40;;;;;;5074045;28;20194;-46
2023/09/27 01:02:10;;;;;;;0.10;0.10;;;15.60;50.40;;;;;;5074087;28;20226;-46
2023/09/27 01:04:41;;;;;;;0.03;0.03;;;15.60;50.40;;;;;;5074428;28;20604;-45
2023/09/27 01:07:12;;;;;;;0.10;0.10;;;15.60;50.40;;;;;;5074284;28;20201;-45
2023/09/27 01:09:44;;;;;;;0.10;0.10;;;15.60;50.40;;;;;;5074604;28;20198;-47
2023/09/27 01:12:15;;;;;;;0.10;0.10;;;15.60;50.40;;;;;;5074135;28;20214;-49
2023/09/27 01:14:47;;;;;;;0.10;0.10;;;15.60;50.40;;;;;;5073992;28;20199;-45
2023/09/27 01:17:18;;;;;;;0.10;0.10;;;15.60;50.50;;;;;;5073914;28;20217;-47
2023/09/27 01:19:50;;;;;;;0.10;0.10;;;15.60;50.50;;;;;;5073851;28;20195;-47
2023/09/27 01:22:20;;;;;;;0.10;0.10;;;15.60;50.50;;;;;;5073307;28;20227;-47
2023/09/27 01:24:56;;;;;;;0.10;0.10;;;15.60;50.40;;;;;;5074012;28;20195;-47
2023/09/27 01:27:27;;;;;;;0.10;0.10;;;15.60;50.50;;;;;;5071339;28;20183;-47
2023/09/27 01:29:58;;;;;;;0.10;0.10;;;15.60;50.40;;;;;;5053787;28;20206;-47
2023/09/27 01:32:28;;;;;;;0.10;0.10;;;15.60;50.40;;;;;;5054425;28;20844;-48
2023/09/27 01:34:59;;;;;;;0.10;0.10;;;15.70;50.50;;;;;;5053888;28;20287;-48
2023/09/27 01:37:30;;;;;;;0.10;0.10;;;15.70;50.50;;;;;;5053761;28;20195;-48
2023/09/27 01:40:07;;;;;;;0.00;0.00;;;15.70;50.40;;;;;;5053554;28;20227;-47
2023/09/27 01:42:42;;;;;;;0.10;0.10;;;15.70;50.40;;;;;;5063553;28;20310;-48
2023/09/27 01:45:14;;;;;;;0.10;0.10;;;15.70;50.40;;;;;;5073540;28;20194;-48
2023/09/27 01:47:45;;;;;;;0.10;0.10;;;15.70;50.40;;;;;;5073419;28;20739;-49
2023/09/27 01:50:17;;;;;;;0.10;0.10;;;15.70;50.40;;;;;;5073600;28;20203;-49
2023/09/27 01:52:49;;;;;;;0.08;0.08;;;15.70;50.40;;;;;;5073309;28;20232;-47
2023/09/27 01:55:21;;;;;;;0.10;0.10;;;15.70;50.40;;;;;;5073179;28;20198;-47
2023/09/27 01:57:52;;;;;;;0.10;0.10;;;15.70;50.50;;;;;;5072849;28;20195;-49
2023/09/27 02:00:24;;;;;;;0.10;0.10;;;15.70;50.40;;;;;;5071484;28;20208;-50
2023/09/27 02:02:57;;;;;;;0.10;0.10;;;15.70;50.50;;;;;;5073161;28;20230;-47
2023/09/27 02:05:29;;;;;;;0.05;0.05;;;15.70;50.50;;;;;;5073124;28;20651;-49
2023/09/27 02:08:00;;;;;;;0.10;0.10;;;15.70;51.20;;;;;;5073189;28;20241;-47
2023/09/27 02:10:32;;;;;;;0.10;0.10;;;15.70;51.00;;;;;;5073121;28;20195;-50
2023/09/27 02:13:03;;;;;;;0.10;0.10;;;15.80;51.10;;;;;;5072371;28;20218;-49
2023/09/27 02:15:34;;;;;;;0.05;0.05;;;15.70;51.20;;;;;;5072692;28;20191;-46
2023/09/27 02:18:05;;;;;;;0.10;0.10;;;15.70;51.40;;;;;;5072785;28;20202;-46
2023/09/27 02:20:36;;;;;;;0.10;0.10;;;15.70;51.50;;;;;;5072859;28;20194;-50
2023/09/27 02:23:07;;;;;;;0.10;0.10;;;15.70;51.50;;;;;;5072553;28;20244;-50
2023/09/27 02:25:39;;;;;;;0.00;0.00;;;15.70;51.50;;;;;;5072498;28;20646;-48
2023/09/27 02:28:10;;;;;;;0.10;0.10;;;15.60;51.50;;;;;;5071876;28;20218;-51
2023/09/27 02:30:42;;;;;;;0.00;0.00;;;15.60;51.60;;;;;;5055493;28;20203;-49
2023/09/27 02:33:12;;;;;;;0.10;0.10;;;15.60;51.80;;;;;;5064518;22;20231;-60
2023/09/27 02:35:43;;;;;;;0.10;0.10;;;15.60;51.90;;;;;;5052422;28;20195;-60
2023/09/27 02:38:14;;;;;;;0.10;0.10;;;15.60;52.00;;;;;;5047651;28;20188;-59
2023/09/27 02:40:46;;;;;;;0.10;0.10;;;15.60;52.10;;;;;;5032422;28;20219;-60
2023/09/27 02:43:17;;;;;;;0.00;0.00;;;15.50;52.00;;;;;;5031901;28;20239;-61
2023/09/27 02:45:49;;;;;;;0.08;0.08;;;15.60;52.00;;;;;;5032829;28;20238;-59
2023/09/27 02:48:19;;;;;;;0.10;0.10;;;15.50;52.00;;;;;;5052440;28;20567;-59
2023/09/27 02:50:52;;;;;;;0.10;0.10;;;15.50;52.00;;;;;;5052109;28;20196;-61
2023/09/27 02:53:23;;;;;;;0.10;0.10;;;15.50;52.00;;;;;;5052173;28;20663;-62
2023/09/27 02:55:55;;;;;;;0.00;0.00;;;15.50;52.00;;;;;;5052130;28;20195;-60
2023/09/27 02:58:26;;;;;;;0.08;0.08;;;15.50;52.00;;;;;;5051908;28;20234;-62
2023/09/27 03:00:56;;;;;;;0.10;0.10;;;15.50;52.00;;;;;;5052165;28;20210;-59
2023/09/27 03:03:27;;;;;;;0.10;0.10;;;15.50;52.00;;;;;;5052212;28;20227;-62
2023/09/27 03:05:58;;;;;;;0.00;0.00;;;15.50;52.00;;;;;;5052127;28;20226;-60
2023/09/27 03:08:29;;;;;;;0.10;0.10;;;15.50;52.00;;;;;;5052089;28;20655;-60
2023/09/27 03:11:06;;;;;;;0.10;0.10;;;15.50;52.10;;;;;;5051057;28;20571;-62
2023/09/27 03:13:37;;;;;;;0.10;0.10;;;15.40;52.20;;;;;;5051779;28;20222;-61
2023/09/27 03:16:08;;;;;;;0.10;0.10;;;15.40;52.30;;;;;;5051498;28;20620;-61
2023/09/27 03:18:39;;;;;;;0.10;0.10;;;15.40;52.40;;;;;;5051897;28;20682;-59
2023/09/27 03:21:09;;;;;;;0.10;0.10;;;15.30;52.40;;;;;;5051261;28;20204;-62
2023/09/27 03:23:40;;;;;;;0.10;0.10;;;15.30;52.60;;;;;;5051379;28;20227;-60
2023/09/27 03:26:12;;;;;;;0.00;0.00;;;15.30;52.60;;;;;;5039420;28;20192;-61
2023/09/27 03:28:46;;;;;;;0.10;0.10;;;15.20;52.70;;;;;;5031723;28;20206;-61
2023/09/27 03:31:17;;;;;;;0.10;0.10;;;15.20;52.80;;;;;;5032272;28;20244;-62
2023/09/27 03:33:48;;;;;;;0.10;0.10;;;15.20;52.90;;;;;;5031762;28;20199;-62
2023/09/27 03:36:18;;;;;;;0.10;0.10;;;15.20;53.00;;;;;;5031670;28;20579;-61
2023/09/27 03:38:49;;;;;;;0.05;0.05;;;15.20;53.10;;;;;;5037808;28;20192;-61
2023/09/27 03:41:22;;;;;;;0.10;0.10;;;15.20;53.20;;;;;;5050719;28;20203;-59
2023/09/27 03:43:52;;;;;;;0.10;0.10;;;15.20;53.30;;;;;;5051207;28;20229;-59
2023/09/27 03:46:23;;;;;;;0.10;0.10;;;15.20;53.40;;;;;;5051440;28;20199;-61
2023/09/27 03:48:53;;;;;;;0.10;0.10;;;15.10;53.40;;;;;;5051734;28;20199;-59
2023/09/27 03:51:27;;;;;;;0.10;0.10;;;15.10;53.50;;;;;;5049510;28;20198;-61
2023/09/27 03:53:58;;;;;;;0.10;0.10;;;15.10;53.70;;;;;;5051191;28;20203;-59
2023/09/27 03:56:30;;;;;;;0.10;0.10;;;15.10;53.80;;;;;;5050929;28;20199;-58
2023/09/27 03:59:01;;;;;;;0.10;0.10;;;15.00;53.90;;;;;;5051501;28;20206;-58
2023/09/27 04:01:32;;;;;;;0.10;0.10;;;15.00;53.90;;;;;;5051437;28;20199;-61
2023/09/27 04:04:04;;;;;;;0.10;0.10;;;15.00;54.20;;;;;;5051287;28;20269;-61
2023/09/27 04:06:35;;;;;;;0.10;0.10;;;15.00;54.30;;;;;;5051544;28;20662;-59
2023/09/27 04:09:06;;;;;;;0.10;0.10;;;15.00;54.50;;;;;;5051473;28;20203;-61
2023/09/27 04:11:39;;;;;;;0.10;0.10;;;14.90;54.70;;;;;;5050708;28;20211;-58
2023/09/27 04:14:11;;;;;;;0.10;0.10;;;14.90;54.90;;;;;;5051306;28;20195;-62
2023/09/27 04:16:42;;;;;;;0.10;0.10;;;14.90;55.00;;;;;;5050658;28;20211;-59
2023/09/27 04:19:13;;;;;;;0.10;0.10;;;14.90;55.20;;;;;;5051048;28;20196;-60
2023/09/27 04:21:43;;;;;;;0.10;0.10;;;14.90;55.30;;;;;;5052297;28;20725;-56
2023/09/27 04:24:14;;;;;;;0.10;0.10;;;14.90;55.40;;;;;;5055058;28;20199;-60
2023/09/27 04:26:46;;;;;;;0.10;0.10;;;14.90;55.40;;;;;;5054183;28;20200;-59
2023/09/27 04:29:17;;;;;;;0.08;0.08;;;14.90;55.40;;;;;;5054849;28;20211;-60
2023/09/27 04:31:48;;;;;;;0.10;0.10;;;14.90;55.40;;;;;;5054834;22;20357;-49
2023/09/27 04:34:19;;;;;;;0.10;0.10;;;14.90;55.40;;;;;;5074850;28;20202;-47
2023/09/27 04:36:50;;;;;;;0.10;0.10;;;14.90;55.50;;;;;;5074805;28;20618;-48
2023/09/27 04:39:21;;;;;;;0.10;0.10;;;14.80;55.40;;;;;;5075030;28;20245;-49
2023/09/27 04:41:53;;;;;;;0.10;0.10;;;14.80;55.40;;;;;;5074136;28;20305;-47
2023/09/27 04:44:24;;;;;;;0.10;0.10;;;14.80;55.50;;;;;;5074577;28;20242;-48
2023/09/27 04:46:55;;;;;;;0.10;0.10;;;14.80;55.50;;;;;;5074287;28;20235;-47
2023/09/27 04:49:25;;;;;;;0.10;0.10;;;14.80;55.50;;;;;;5074277;28;20195;-49
2023/09/27 04:51:56;;;;;;;0.10;0.10;;;14.80;55.60;;;;;;5074298;28;20230;-47
2023/09/27 04:54:27;;;;;;;0.10;0.10;;;14.80;55.60;;;;;;5074446;28;20639;-48
2023/09/27 04:57:00;;;;;;;0.10;0.10;;;14.80;55.70;;;;;;5073920;28;20206;-47
2023/09/27 04:59:31;;;;;;;0.10;0.10;;;14.70;55.80;;;;;;5074453;28;20353;-48
2023/09/27 05:02:02;;;;;;;0.15;0.15;;;14.70;55.80;;;;;;5074360;28;20246;-47
2023/09/27 05:04:33;;;;;;;0.10;0.10;;;14.70;56.00;;;;;;5074520;28;20240;-47
2023/09/27 05:07:04;;;;;;;0.10;0.10;;;14.70;56.10;;;;;;5074208;28;20201;-46
2023/09/27 05:09:35;;;;;;;0.10;0.10;;;14.70;56.30;;;;;;5074352;28;20231;-47
2023/09/27 05:12:08;;;;;;;0.10;0.10;;;14.70;56.40;;;;;;5073884;28;20219;-47
2023/09/27 05:14:38;;;;;;;0.10;0.10;;;14.70;56.50;;;;;;5074088;28;20202;-48
2023/09/27 05:17:09;;;;;;;0.10;0.10;;;14.70;56.50;;;;;;5073534;28;20670;-49
2023/09/27 05:19:39;;;;;;;0.10;0.10;;;14.70;56.60;;;;;;5073575;28;20194;-48
2023/09/27 05:22:11;;;;;;;0.10;0.10;;;14.70;56.60;;;;;;5073823;28;20639;-47
2023/09/27 05:24:42;;;;;;;0.10;0.10;;;14.70;56.60;;;;;;5073664;28;20230;-47
2023/09/27 05:27:15;;;;;;;0.10;0.10;;;14.70;56.70;;;;;;5073280;28;20194;-47
2023/09/27 05:29:46;;;;;;;0.10;0.10;;;14.70;56.70;;;;;;5073740;28;20187;-46
2023/09/27 05:32:17;;;;;;;0.10;0.10;;;14.60;56.70;;;;;;5073811;28;20233;-47
2023/09/27 05:34:48;;;;;;;0.10;0.10;;;14.60;56.80;;;;;;5082119;22;20179;-59
2023/09/27 05:37:18;;;;;;;0.10;0.10;;;14.70;56.90;;;;;;5073404;28;20203;-59
2023/09/27 05:39:49;;;;;;;0.10;0.10;;;14.60;56.90;;;;;;5072903;28;20195;-61
2023/09/27 05:42:21;;;;;;;0.10;0.10;;;14.70;57.00;;;;;;5072919;28;20218;-59
2023/09/27 05:44:52;;;;;;;0.10;0.10;;;14.60;57.00;;;;;;5073057;28;20207;-58
2023/09/27 05:47:24;;;;;;;0.10;0.10;;;14.60;57.10;;;;;;5072935;28;20199;-61
2023/09/27 05:49:55;;;;;;;0.10;0.10;;;14.60;57.10;;;;;;5071433;28;20191;-61
2023/09/27 05:52:27;;;;;;;0.10;0.10;;;14.60;57.10;;;;;;5073057;28;20306;-59
2023/09/27 05:54:57;;;;;;;0.10;0.10;;;14.60;57.20;;;;;;5072798;28;20252;-60
2023/09/27 05:57:30;;;;;;;0.10;0.10;;;14.60;57.20;;;;;;5073140;28;20206;-58
2023/09/27 06:00:03;;;;;;;0.10;0.10;;;14.60;57.40;;;;;;5073326;28;20230;-60
2023/09/27 06:02:33;;;;;;;0.10;0.10;;;14.60;57.40;;;;;;5073024;28;20864;-61
2023/09/27 06:05:04;;;;;;;0.10;0.10;;;14.50;57.40;;;;;;5072976;28;20199;-61
2023/09/27 06:07:35;;;;;;;0.10;0.10;;;14.60;57.40;;;;;;5073113;28;20332;-59
2023/09/27 06:10:06;;;;;;;0.10;0.10;;;14.50;57.40;;;;;;5072248;28;20195;-59
2023/09/27 06:12:38;;;;;;;0.10;0.10;;;14.50;57.30;;;;;;5072530;28;20588;-59
2023/09/27 06:15:12;;;;;;;0.10;0.10;;;14.50;57.30;;;;;;5072771;28;20203;-61
2023/09/27 06:17:43;;;;;;;0.13;0.13;;;14.50;57.30;;;;;;5073081;28;20199;-59
2023/09/27 06:20:19;;;;;;;0.20;0.20;;;14.50;57.40;;;;;;5073056;28;20617;-61
2023/09/27 06:22:52;;;;;;;0.10;0.10;;;14.50;57.40;;;;;;5072488;28;20226;-60
2023/09/27 06:25:28;;;;;;;0.10;0.10;;;14.50;57.60;;;;;;5071817;28;20202;-58
2023/09/27 06:28:02;;;;;;;0.10;0.10;;;14.40;57.60;;;;;;5072189;28;20194;-61
2023/09/27 06:30:33;;;;;;;0.10;0.10;;;14.40;57.70;;;;;;5069678;28;20191;-59
2023/09/27 06:33:04;;;;;;;0.10;0.10;;;14.40;57.70;;;;;;5052521;28;20687;-58
2023/09/27 06:35:34;;;;;;;0.10;0.10;;;14.40;57.90;;;;;;5052358;28;20199;-63
2023/09/27 06:38:05;;;;;;;0.10;0.10;;;14.40;57.90;;;;;;5066845;22;21329;-46
2023/09/27 06:40:36;;;;;;;0.10;0.10;;;14.40;58.00;;;;;;5071566;28;20529;-46
2023/09/27 06:43:09;;;;;;;0.10;0.10;;;14.50;57.60;;;;;;5056643;28;20265;-47
2023/09/27 06:45:43;;;;;;;0.10;0.10;;;14.50;57.50;;;;;;5050517;28;20187;-46
2023/09/27 06:48:13;;;;;;;0.10;0.10;;;14.50;57.30;;;;;;5032721;28;20199;-46
2023/09/27 06:50:44;;;;;;;0.10;0.10;;;14.50;57.20;;;;;;5032537;28;20203;-46
2023/09/27 06:53:17;;;;;;;0.10;0.10;;;14.50;57.10;;;;;;5032036;28;20220;-47
2023/09/27 06:55:49;;;;;;;0.10;0.10;;;14.60;57.10;;;;;;5032329;28;20192;-47
2023/09/27 06:58:23;;;;;;;0.10;0.10;;;14.60;57.00;;;;;;5032521;28;20648;-47
2023/09/27 07:00:54;;;;;;;0.10;0.10;;;14.60;56.90;;;;;;5032516;28;20203;-46
2023/09/27 07:03:28;;;;;;;0.10;0.10;;;14.60;56.90;;;;;;5032035;28;20719;-47
2023/09/27 07:05:59;;;;;;;0.10;0.10;;;14.60;56.70;;;;;;5032273;28;20536;-48
2023/09/27 07:08:30;;;;;;;0.15;0.15;;;14.60;56.60;;;;;;5031988;28;20656;-47
2023/09/27 07:11:08;;;;;;;0.10;0.10;;;14.70;56.60;;;;;;5050438;28;20194;-47
2023/09/27 07:13:40;;;;;;;0.10;0.10;;;14.70;56.50;;;;;;5051749;28;20219;-48
2023/09/27 07:16:26;;;;;;;0.10;0.10;;;14.70;56.40;;;;;;5051443;28;20200;-47
2023/09/27 07:18:59;;;;;;;0.10;0.10;;;14.70;56.40;;;;;;5051183;28;20218;-46
2023/09/27 07:21:30;;;;;;;0.10;0.10;;;14.70;56.20;;;;;;5051424;28;20227;-46
2023/09/27 07:24:01;;;;;;;0.10;0.10;;;14.70;56.20;;;;;;5051429;28;20285;-46
2023/09/27 07:26:31;;;;;;;0.10;0.10;;;14.70;56.10;;;;;;5050719;28;20562;-46
2023/09/27 07:29:04;;;;;;;0.10;0.10;;;14.80;56.10;;;;;;5049012;28;20213;-46
2023/09/27 07:31:35;;;;;;;0.10;0.10;;;14.70;56.00;;;;;;5051859;28;20200;-46
2023/09/27 07:34:05;;;;;;;0.10;0.10;;;14.80;56.00;;;;;;5051709;28;20206;-47
2023/09/27 07:36:36;;;;;;;0.10;0.10;;;14.80;55.90;;;;;;5051471;28;20199;-46
2023/09/27 07:39:09;;;;;;;0.10;0.10;;;14.80;55.80;;;;;;5052038;28;20208;-45
2023/09/27 07:41:40;;;;;;;0.10;0.10;;;14.80;55.80;;;;;;5051076;28;20226;-48
2023/09/27 07:44:13;;;;;;;0.10;0.10;;;14.80;55.70;;;;;;5051753;28;20288;-49
2023/09/27 07:46:44;;;;;;;0.10;0.10;;;14.80;55.70;;;;;;5051212;28;20287;-48
2023/09/27 07:49:15;;;;;;;0.10;0.10;;;14.80;55.60;;;;;;5051354;28;20195;-46
2023/09/27 07:51:45;;;;;;;0.10;0.10;;;14.80;55.60;;;;;;5051228;28;20222;-46
2023/09/27 07:54:16;;;;;;;0.10;0.10;;;14.80;55.50;;;;;;5051657;28;20206;-48
2023/09/27 07:56:47;;;;;;;0.10;0.10;;;14.80;55.40;;;;;;5072366;28;20708;-48
2023/09/27 07:59:19;;;;;;;0.10;0.10;;;14.90;55.40;;;;;;5075562;28;20199;-48
2023/09/27 08:01:50;;;;;;;0.10;0.10;;;14.80;55.40;;;;;;5075680;28;20223;-46
2023/09/27 08:04:20;;;;;;;0.10;0.10;;;14.80;55.30;;;;;;5075655;28;20222;-48
2023/09/27 08:06:51;;;;;;;0.10;0.10;;;14.80;55.30;;;;;;5075327;28;20198;-49
2023/09/27 08:09:23;;;;;;;0.10;0.10;;;14.90;55.30;;;;;;5075572;28;20599;-48
2023/09/27 08:11:53;;;;;;;0.10;0.10;;;14.80;55.20;;;;;;5074736;28;20633;-49
2023/09/27 08:14:26;;;;;;;0.10;0.10;;;14.80;55.10;;;;;;5075275;28;20202;-47
2023/09/27 08:16:57;;;;;;;0.10;0.10;;;14.80;55.10;;;;;;5065870;28;20659;-47
2023/09/27 08:19:27;;;;;;;0.10;0.10;;;14.80;55.00;;;;;;5055113;28;20203;-48
2023/09/27 08:21:58;;;;;;;0.17;0.17;;;14.90;55.10;;;;;;5055084;28;20223;-48
2023/09/27 08:24:29;;;;;;;0.10;0.10;;;14.90;55.00;;;;;;5055085;28;20266;-48
2023/09/27 08:27:01;;;;;;;0.10;0.10;;;14.80;54.90;;;;;;5054675;28;20598;-47
2023/09/27 08:29:33;;;;;;;0.10;0.10;;;14.90;54.90;;;;;;5055263;28;20650;-47
2023/09/27 08:32:06;;;;;;;0.10;0.10;;;14.90;54.90;;;;;;5057038;28;20310;-47
2023/09/27 08:34:37;;;;;;;0.10;0.10;;;14.90;54.80;;;;;;5054663;28;20198;-47
2023/09/27 08:37:07;;;;;;;0.10;0.10;;;14.90;54.80;;;;;;5054862;28;20195;-48
2023/09/27 08:39:38;;;;;;;0.10;0.10;;;14.90;54.80;;;;;;5055221;28;20203;-49
2023/09/27 08:42:08;;;;;;;0.10;0.10;;;14.90;54.80;;;;;;5054351;28;20578;-47
2023/09/27 08:44:41;;;;;;;0.15;0.15;;;14.90;54.80;;;;;;5054785;28;20752;-48
2023/09/27 08:47:13;;;;;;;0.10;0.10;;;14.90;54.70;;;;;;5054169;28;20192;-47
2023/09/27 08:49:44;;;;;;;0.10;0.10;;;14.90;54.70;;;;;;5054837;28;20663;-48
2023/09/27 08:52:16;;;;;;;0.10;0.10;;;14.90;54.70;;;;;;5054209;28;20222;-48
2023/09/27 08:54:46;;;;;;;0.10;0.10;;;14.90;54.70;;;;;;5054539;28;20192;-48
2023/09/27 08:57:18;;;;;;;0.10;0.10;;;14.90;54.60;;;;;;5053963;28;20612;-48
2023/09/27 08:59:51;;;;;;;0.10;0.10;;;14.90;54.60;;;;;;5054109;28;20235;-47
2023/09/27 09:02:23;;;;;;;0.10;0.10;;;14.90;54.50;;;;;;5054366;28;20219;-50
2023/09/27 09:04:55;;;;;;;0.10;0.10;;;14.90;54.60;;;;;;5054333;28;20297;-48
2023/09/27 09:07:26;;;;;;;0.10;0.10;;;14.90;54.50;;;;;;5054041;28;20227;-47
2023/09/27 09:09:56;;;;;;;0.10;0.10;;;14.90;54.40;;;;;;5053639;28;20222;-48
2023/09/27 09:12:27;;;;;;;0.10;0.10;;;14.90;54.40;;;;;;5053544;28;20216;-48
2023/09/27 09:15:02;;;;;;;0.10;0.10;;;14.90;54.40;;;;;;5054107;28;20290;-49
2023/09/27 09:17:37;;;;;;;0.13;0.13;;;14.90;54.40;;;;;;5054515;28;20230;-47
2023/09/27 09:20:15;;;;;;;0.10;0.10;;;14.90;54.40;;;;;;5071583;28;20195;-48
2023/09/27 09:22:47;;;;;;;0.10;0.10;;;14.90;54.40;;;;;;5073769;28;20272;-47
2023/09/27 09:25:18;;;;;;;0.10;0.10;;;14.90;54.40;;;;;;5073397;28;20227;-46
2023/09/27 09:28:02;;;;;;;0.10;0.10;;;14.90;54.30;;;;;;5074061;28;20199;-47
2023/09/27 09:30:44;;;;;;;0.10;0.10;;;14.90;54.30;;;;;;5056464;28;20201;-47
2023/09/27 09:33:20;;;;;;;0.10;0.10;;;14.90;54.30;;;;;;5053212;28;20227;-48
2023/09/27 09:35:51;;;;;;;0.10;0.10;;;14.90;54.30;;;;;;5053095;28;20210;-47
2023/09/27 09:38:29;;;;;;;0.10;0.10;;;14.90;54.30;;;;;;5072352;22;20222;-63
2023/09/27 09:41:00;;;;;;;0.10;0.10;;;14.90;54.30;;;;;;5094028;28;20201;-63
2023/09/27 09:43:35;;;;;;;0.10;0.10;;;14.90;54.20;;;;;;5093797;28;20622;-61
2023/09/27 09:46:08;;;;;;;0.10;0.10;;;14.90;54.20;;;;;;5091184;28;20236;-64
2023/09/27 09:48:40;;;;;;;0.10;0.10;;;14.90;54.20;;;;;;5073201;28;20206;-65
2023/09/27 09:51:11;;;;;;;0.10;0.10;;;14.90;54.10;;;;;;5089883;28;20190;-65
2023/09/27 09:53:43;;;;;;;0.10;0.10;;;14.90;54.10;;;;;;5093068;28;20606;-63
2023/09/27 09:56:14;;;;;;;0.10;0.10;;;14.90;54.10;;;;;;5092979;28;20202;-61
2023/09/27 09:58:49;;;;;;;0.10;0.10;;;14.90;54.10;;;;;;5093244;28;20267;-63
2023/09/27 10:01:26;;;;;;;0.10;0.10;;;14.90;54.10;;;;;;5093741;28;20197;-62
2023/09/27 10:03:59;;;;;;;0.10;0.10;;;14.90;54.10;;;;;;5093012;28;20228;-61
2023/09/27 10:06:30;;;;;;;0.10;0.10;;;14.90;54.00;;;;;;5093174;28;20243;-65
2023/09/27 10:09:01;;;;;;;0.10;0.10;;;14.90;54.00;;;;;;5093149;28;20205;-64
2023/09/27 10:11:32;;;;;;;0.10;0.10;;;14.90;54.00;;;;;;5093042;28;20197;-64
2023/09/27 10:14:04;;;;;;;0.10;0.10;;;14.90;54.10;;;;;;5092668;28;20213;-62
2023/09/27 10:16:37;;;;;;;0.10;0.10;;;14.90;54.00;;;;;;5086243;28;20202;-63
2023/09/27 10:19:07;;;;;;;0.10;0.10;;;14.90;54.00;;;;;;5072390;28;20199;-63
2023/09/27 10:22:02;;;;;;;0.10;0.10;;;14.90;54.00;;;;;;5073158;28;20198;-67
2023/09/27 10:24:35;;;;;;;0.10;0.10;;;14.90;54.00;;;;;;5072746;28;20559;-66
2023/09/27 10:27:06;;;;;;;0.10;0.10;;;14.90;53.90;;;;;;5072687;28;20531;-62
2023/09/27 10:30:00;;;;;;;0.08;0.08;;;14.90;53.90;;;;;;5072642;28;20206;-62
2023/09/27 10:32:33;;;;;;;0.10;0.10;;;14.90;53.90;;;;;;5072595;28;20302;-61
2023/09/27 10:35:21;;;;;;;0.10;0.10;;;14.90;53.80;;;;;;5072535;28;20193;-63
2023/09/27 10:38:08;;;;;;;0.10;0.10;;;14.90;53.90;;;;;;5082822;28;20638;-62
2023/09/27 10:40:46;;;;;;;0.10;0.10;;;14.90;53.80;;;;;;5092987;28;20196;-61
2023/09/27 10:43:43;;;;;;;0.10;0.10;;;14.90;53.80;;;;;;5092717;28;20224;-63
2023/09/27 10:46:14;;;;;;;0.10;0.10;;;14.90;53.80;;;;;;5088793;28;20276;-62
2023/09/27 10:48:54;;;;;;;0.10;0.10;;;14.90;53.80;;;;;;5072126;28;20209;-62
2023/09/27 10:51:26;;;;;;;0.10;0.10;;;14.90;53.80;;;;;;5072165;28;20281;-62
2023/09/27 10:53:57;;;;;;;0.10;0.10;;;14.90;53.90;;;;;;5072174;28;20567;-60
2023/09/27 10:56:27;;;;;;;0.10;0.10;;;14.90;53.80;;;;;;5090038;28;20194;-66
2023/09/27 10:58:58;;;;;;;0.10;0.10;;;14.90;53.80;;;;;;5092629;28;20194;-65
2023/09/27 11:01:29;;;;;;;0.10;0.10;;;14.90;54.40;;;;;;5092438;28;20198;-63
2023/09/27 11:04:05;;;;;;;0.10;0.10;;;14.90;53.80;;;;;;5092374;28;20194;-64
2023/09/27 11:06:36;;;;;;;0.10;0.10;;;14.90;53.80;;;;;;5092310;28;20631;-65
2023/09/27 11:09:12;;;;;;;0.10;0.10;;;14.90;53.80;;;;;;5092161;28;20205;-62
2023/09/27 11:11:45;;;;;;;0.10;0.10;;;14.90;53.80;;;;;;5092183;28;20214;-61
2023/09/27 11:14:16;;;;;;;0.10;0.10;;;14.90;53.80;;;;;;5091979;28;20194;-58
2023/09/27 11:16:47;;;;;;;0.10;0.10;;;14.90;53.70;;;;;;5083412;28;20332;-59
2023/09/27 11:19:30;;;;;;;0.10;0.10;;;14.90;53.80;;;;;;5071918;28;20194;-62
2023/09/27 11:22:00;;;;;;;0.10;0.10;;;14.90;53.70;;;;;;5071934;28;20257;-62
2023/09/27 11:24:40;;;;;;;0.10;0.10;;;14.90;53.70;;;;;;5072087;28;20222;-65
2023/09/27 11:27:11;;;;;;;0.10;0.10;;;14.90;53.70;;;;;;5071909;28;20237;-63
2023/09/27 11:29:42;;;;;;;0.10;0.10;;;14.90;53.70;;;;;;5071856;28;20202;-63
2023/09/27 11:32:14;;;;;;;0.10;0.10;;;14.90;54.30;;;;;;5071233;28;20230;-66
2023/09/27 11:34:55;;;;;;;0.10;0.10;;;14.90;53.60;;;;;;5074252;28;20187;-63
2023/09/27 11:37:26;;;;;;;0.10;0.10;;;14.90;53.70;;;;;;5071537;28;20205;-61
2023/09/27 11:39:57;;;;;;;0.10;0.10;;;14.90;53.60;;;;;;5071966;28;20655;-62
2023/09/27 11:42:28;;;;;;;0.10;0.10;;;14.90;53.60;;;;;;5071455;28;20250;-64
2023/09/27 11:45:08;;;;;;;0.10;0.10;;;14.90;53.60;;;;;;5071538;28;20227;-62
2023/09/27 11:47:48;;;;;;;0.10;0.10;;;14.80;53.50;;;;;;5071702;28;20204;-62
2023/09/27 11:50:22;;;;;;;0.10;0.10;;;14.90;53.60;;;;;;5071672;28;20213;-62
2023/09/27 11:52:52;;;;;;;0.10;0.10;;;14.90;53.50;;;;;;5071227;28;20214;-60
2023/09/27 11:55:23;;;;;;;0.10;0.10;;;14.80;53.50;;;;;;5071546;28;20256;-62
2023/09/27 11:57:59;;;;;;;0.10;0.10;;;14.90;53.50;;;;;;5071766;28;20195;-61
2023/09/27 12:00:29;;;;;;;0.10;0.10;;;14.80;53.50;;;;;;5080741;28;20200;-58
2023/09/27 12:03:00;;;;;;;0.10;0.10;;;14.90;53.50;;;;;;5091594;28;20279;-62
2023/09/27 12:05:32;;;;;;;0.10;0.10;;;14.80;53.50;;;;;;5091470;28;20231;-65
2023/09/27 12:08:04;;;;;;;0.10;0.10;;;14.80;53.50;;;;;;5091375;28;20190;-62
2023/09/27 12:10:34;;;;;;;0.10;0.10;;;14.80;53.50;;;;;;5091442;28;20201;-65
2023/09/27 12:13:08;;;;;;;0.10;0.10;;;14.80;53.50;;;;;;5091133;28;20214;-57
2023/09/27 12:15:38;;;;;;;0.05;0.05;;;14.80;53.50;;;;;;5091338;28;20209;-60
2023/09/27 12:18:09;;;;;;;0.10;0.10;;;14.80;53.50;;;;;;5071649;28;20207;-60
2023/09/27 12:20:41;;;;;;;0.10;0.10;;;14.80;53.40;;;;;;5071500;28;20203;-61
2023/09/27 12:23:13;;;;;;;0.10;0.10;;;14.80;53.40;;;;;;5070865;28;20245;-62
2023/09/27 12:25:44;;;;;;;0.10;0.10;;;14.80;53.40;;;;;;5071037;28;20254;-65
2023/09/27 12:28:14;;;;;;;0.10;0.10;;;14.80;53.40;;;;;;5070848;28;20226;-65
2023/09/27 12:30:45;;;;;;;0.10;0.10;;;14.80;53.40;;;;;;5075789;28;20182;-61
2023/09/27 12:33:16;;;;;;;0.10;0.10;;;14.80;53.40;;;;;;5091046;28;20218;-65
2023/09/27 12:35:49;;;;;;;0.10;0.10;;;14.80;53.40;;;;;;5091249;28;20201;-65
2023/09/27 12:38:21;;;;;;;0.10;0.10;;;14.90;53.40;;;;;;5091207;28;20209;-66
2023/09/27 12:40:51;;;;;;;0.10;0.10;;;14.80;53.40;;;;;;5090930;28;20204;-66
2023/09/27 12:43:22;;;;;;;0.10;0.10;;;14.80;53.30;;;;;;5093325;28;20241;-59
2023/09/27 12:45:53;;;;;;;0.10;0.10;;;14.80;53.30;;;;;;5094160;28;20222;-62
2023/09/27 12:48:23;;;;;;;0.10;0.10;;;14.80;53.30;;;;;;5074581;28;20194;-63
2023/09/27 12:50:56;;;;;;;0.10;0.10;;;14.80;53.30;;;;;;5074443;28;20199;-63
2023/09/27 12:53:27;;;;;;;0.10;0.10;;;14.90;53.40;;;;;;5074024;28;20218;-63
2023/09/27 12:55:58;;;;;;;0.10;0.10;;;14.80;53.30;;;;;;5074991;28;20199;-60
2023/09/27 12:58:28;;;;;;;0.10;0.10;;;14.80;53.30;;;;;;5075030;28;20213;-60
2023/09/27 13:00:59;;;;;;;0.10;0.10;;;14.80;53.30;;;;;;5074654;28;20209;-64
2023/09/27 13:03:31;;;;;;;0.10;0.10;;;14.80;53.30;;;;;;5076680;28;20222;-60
2023/09/27 13:06:03;;;;;;;0.10;0.10;;;14.80;53.30;;;;;;5074411;28;20227;-61
2023/09/27 13:08:34;;;;;;;0.10;0.10;;;14.80;53.30;;;;;;5074426;28;20194;-62
2023/09/27 13:11:05;;;;;;;0.10;0.10;;;14.80;53.30;;;;;;5074302;28;20669;-63
2023/09/27 13:13:35;;;;;;;0.10;0.10;;;14.80;53.20;;;;;;5091059;28;20221;-64